Flight Track Log - Related Links

Times and Time Zones

All times are in EDT time to prevent confusion due to time zone crossing. See the CAL958 flight status page for this flight to view local times or setup timezone preferences in your user account.

Time Position Orientation Groundspeed Altitude Reporting Facility
EDT Latitude Longitude Course Direction KTS MPH feet Rate Location/Type
Thu 07:22:00 AM 27.6759 120.9115 167° South  Level Estimated
Thu 07:23:00 AM 27.5971 120.9313 167° South  Level Estimated
Thu 07:24:00 AM 27.5183 120.9511 167° South  Level Estimated
Thu 07:25:00 AM 27.4395 120.9708 167° South  Level Estimated
Thu 07:26:00 AM 27.3607 120.9905 167° South  Level Estimated
Thu 07:27:00 AM 27.2819 121.0102 167° South  Level Estimated
Thu 07:28:00 AM 27.2031 121.0299 167° South  Level Estimated
Thu 07:29:00 AM 27.1242 121.0495 168° South  Level Estimated
Thu 07:30:00 AM 27.0454 121.0691 168° South  Level Estimated
Thu 07:31:00 AM 26.9666 121.0887 168° South  Level Estimated
Thu 07:32:00 AM 26.8878 121.1082 168° South  Level Estimated
Thu 07:33:00 AM 26.8090 121.1277 168° South  Level Estimated
Thu 07:34:00 AM 26.7302 121.1472 168° South  Level Estimated
Thu 07:35:00 AM 26.6513 121.1667 168° South  Level Estimated
Thu 07:36:00 AM 26.5725 121.1861 168° South  Level Estimated
Thu 07:37:00 AM 26.4937 121.2055 168° South  Level Estimated
Thu 07:38:00 AM 26.4148 121.2249 168° South  Level Estimated
Thu 07:39:00 AM 26.3360 121.2443 168° South  Level Estimated
Thu 07:40:00 AM 26.2572 121.2636 168° South  Level Estimated
Thu 07:41:00 AM 26.1783 121.2829 168° South  Level Estimated
Thu 07:42:00 AM 26.0995 121.3022 168° South  Level Estimated
Thu 07:43:00 AM 26.0206 121.3214 168° South  Level Estimated
Thu 07:44:00 AM 25.9418 121.3407 168° South  Level Estimated
Thu 07:45:00 AM 25.8629 121.3599 168° South  Level Estimated
Thu 07:46:00 AM 25.7841 121.3791 168° South  Level Estimated
Thu 07:47:00 AM 25.7052 121.3982 168° South  Level Estimated
Thu 07:48:00 AM 25.6263 121.4173 168° South  Level Estimated
Thu 07:49:00 AM 25.5475 121.4364 168° South  Level Estimated
Thu 07:50:00 AM 25.4686 121.4555 168° South  Level Estimated
Thu 07:51:00 AM 25.3897 121.4746 168° South  Level Estimated
Thu 07:52:00 AM 25.3109 121.4936 168° South  Level Estimated
Thu 07:53:00 AM 25.2320 121.5126 168° South  Level Estimated
Thu 07:54:00 AM 25.1531 121.5316 168° South  Level Estimated
Thu 07:55:00 AM 25.0743 121.5505 168° South  Level Estimated
Thu 07:56:00 AM 25.0694 121.5517 168° South  Level Estimated
Thu 07:57:00 AM 25.0694 121.5517 North  Level Estimated
Thu 07:58:00 AM 25.0694 121.5517 North  Level Estimated
Thu 07:59:00 AM 25.0694 121.5517 North  Level Estimated
Thu 08:00:00 AM 25.0694 121.5517 North  Level Estimated
Thu 08:01:00 AM 25.0694 121.5517 North  Level Estimated
Thu 08:02:00 AM 25.0694 121.5517 North  Level Estimated
Thu 08:03:00 AM 25.0694 121.5517 North  Level Estimated
Thu 08:04:00 AM 25.0694 121.5517 North  Level Estimated
Thu 08:05:00 AM 25.0694 121.5517 North  Level Estimated
Thu 08:06:00 AM 25.0694 121.5517 North  Level Estimated
Thu 08:07:00 AM 25.0694 121.5517 North  Level Estimated
Thu 08:08:00 AM 25.0694 121.5517 North  Level Estimated
Thu 08:09:00 AM 25.0694 121.5517 North  Level Estimated
Thu 08:10:00 AM 25.0694 121.5517 North  Level Estimated
Thu 08:11:00 AM 25.0694 121.5517 North  Level Estimated

Login

Don't have an account? Register now (free) for customized features, flight alerts, and more!